Time;durP1;ratioP1;P1;durP2;ratioP2;P2;SDS_P1;SDS_P2;PMS_P1;PMS_P2;Temp;Humidity;BMP_temperature;BMP_pressure;BME280_temperature;BME280_humidity;BME280_pressure;Samples;Min_cycle;Max_cycle;Signal;HPM_P1;HPM_P2
2022/11/04 00:02:57;;;;;;;12.07;10.83;;;13.80;49.20;;;;;;10488365;28;20243;-82
2022/11/04 00:13:22;;;;;;;11.37;10.37;;;13.80;49.00;;;;;;10488450;28;20243;-81
2022/11/04 00:18:25;;;;;;;11.23;10.23;;;13.70;48.60;;;;;;10485605;28;20594;-81
2022/11/04 00:28:53;;;;;;;10.43;9.47;;;13.60;48.80;;;;;;10488536;28;20263;-81
2022/11/04 00:33:58;;;;;;;9.97;9.00;;;13.60;48.80;;;;;;10488315;28;20225;-81
2022/11/04 00:39:03;;;;;;;9.63;8.77;;;13.50;49.60;;;;;;10460453;28;20681;-81
2022/11/04 00:44:06;;;;;;;9.07;8.27;;;13.50;49.00;;;;;;10488283;28;20229;-81
2022/11/04 00:49:09;;;;;;;8.83;8.10;;;13.50;48.90;;;;;;10485884;28;20236;-81
2022/11/04 00:54:14;;;;;;;8.43;7.70;;;13.60;49.00;;;;;;10484608;28;20292;-81
2022/11/04 00:59:17;;;;;;;7.80;7.10;;;13.60;49.00;;;;;;10488963;28;20236;-81
2022/11/04 01:04:20;;;;;;;7.47;6.70;;;13.60;49.00;;;;;;10479019;28;20236;-81
2022/11/04 01:09:25;;;;;;;7.27;6.67;;;13.60;49.00;;;;;;10476536;28;20239;-82
2022/11/04 01:14:28;;;;;;;7.57;6.87;;;13.70;49.40;;;;;;10482377;28;20228;-82
2022/11/04 01:19:31;;;;;;;7.50;6.80;;;13.60;49.10;;;;;;10482820;28;20244;-82
2022/11/04 01:24:36;;;;;;;7.23;6.23;;;13.60;49.40;;;;;;10483796;28;20231;-82
2022/11/04 01:29:39;;;;;;;6.83;6.23;;;13.60;49.80;;;;;;10485080;28;20239;-82
2022/11/04 01:34:42;;;;;;;5.80;5.30;;;13.60;49.60;;;;;;10485445;28;20251;-82
2022/11/04 01:39:47;;;;;;;5.83;5.33;;;13.70;49.50;;;;;;10482817;28;20240;-82
2022/11/04 01:44:53;;;;;;;5.70;5.20;;;13.70;49.90;;;;;;10483836;28;20224;-81
2022/11/04 01:50:00;;;;;;;5.43;4.87;;;13.70;49.80;;;;;;10489529;28;20240;-82
2022/11/04 01:55:09;;;;;;;4.90;4.50;;;13.70;49.80;;;;;;10489911;28;20224;-82
2022/11/04 02:00:14;;;;;;;4.30;4.00;;;13.80;49.90;;;;;;10482512;28;20244;-82
2022/11/04 02:05:17;;;;;;;4.77;4.37;;;13.80;49.40;;;;;;10487444;28;20588;-82
2022/11/04 02:10:25;;;;;;;4.30;3.90;;;13.80;49.20;;;;;;10484032;28;20773;-82
2022/11/04 02:15:37;;;;;;;4.17;3.83;;;13.80;49.90;;;;;;10490330;28;20608;-82
2022/11/04 02:21:11;;;;;;;3.80;3.50;;;13.80;50.00;;;;;;10486302;28;20228;-82
2022/11/04 02:27:02;;;;;;;3.90;3.50;;;13.80;50.10;;;;;;10495037;28;20274;-82
2022/11/04 02:32:16;;;;;;;3.60;3.30;;;13.80;49.90;;;;;;10488989;28;20220;-82
2022/11/04 02:37:37;;;;;;;3.67;3.37;;;13.90;50.10;;;;;;10492769;28;20223;-82
2022/11/04 02:42:46;;;;;;;3.40;3.10;;;13.90;50.00;;;;;;10488169;28;20236;-81
2022/11/04 02:47:57;;;;;;;3.57;3.27;;;13.90;49.70;;;;;;10491507;28;20235;-82
2022/11/04 02:53:05;;;;;;;3.60;3.30;;;13.90;49.80;;;;;;10491411;28;20236;-82
2022/11/04 02:58:14;;;;;;;3.10;2.90;;;13.90;49.40;;;;;;10488161;28;20224;-82
2022/11/04 03:03:24;;;;;;;2.70;2.50;;;13.90;49.50;;;;;;10490862;28;20240;-82
2022/11/04 03:08:33;;;;;;;2.97;2.77;;;13.90;49.50;;;;;;10491623;28;20237;-81
2022/11/04 03:13:42;;;;;;;3.20;2.80;;;14.00;49.40;;;;;;10485470;28;20710;-82
2022/11/04 03:18:54;;;;;;;2.83;2.50;;;14.00;49.40;;;;;;10498263;28;20220;-82
2022/11/04 03:23:58;;;;;;;2.63;2.43;;;14.00;49.40;;;;;;10498558;28;20228;-82
2022/11/04 03:29:15;;;;;;;3.40;2.27;;;14.00;49.00;;;;;;10491752;28;20239;-81
2022/11/04 03:34:20;;;;;;;2.33;2.20;;;14.00;49.00;;;;;;10500762;28;20243;-81
2022/11/04 03:39:23;;;;;;;2.50;2.30;;;13.90;48.90;;;;;;10498044;28;20239;-81
2022/11/04 03:44:28;;;;;;;2.00;1.90;;;14.00;48.90;;;;;;10499559;28;20231;-82
2022/11/04 03:49:32;;;;;;;1.63;1.53;;;14.00;48.90;;;;;;10499179;28;20240;-82
2022/11/04 03:54:36;;;;;;;2.13;1.93;;;14.00;48.90;;;;;;10504143;28;20232;-81
2022/11/04 04:00:02;;;;;;;2.20;2.00;;;14.00;48.60;;;;;;10497523;28;20286;-81
2022/11/04 04:05:12;;;;;;;1.90;1.80;;;14.00;48.50;;;;;;10486763;28;20707;-81
2022/11/04 04:10:40;;;;;;;1.87;1.77;;;14.00;48.50;;;;;;10495792;28;20227;-81
2022/11/04 04:15:49;;;;;;;1.83;1.67;;;14.00;48.50;;;;;;10486469;28;20304;-81
2022/11/04 04:20:56;;;;;;;1.90;1.80;;;14.00;48.40;;;;;;10489466;28;20239;-82
2022/11/04 04:36:53;;;;;;;1.60;1.50;;;14.10;48.10;;;;;;10494347;28;20228;-81
2022/11/04 04:47:19;;;;;;;1.50;1.40;;;14.10;47.90;;;;;;10495438;28;20231;-81
2022/11/04 04:52:27;;;;;;;1.63;1.53;;;14.10;48.00;;;;;;10495340;28;20247;-81
2022/11/04 04:57:30;;;;;;;1.43;1.30;;;14.10;47.80;;;;;;10492654;28;20235;-80
2022/11/04 05:02:33;;;;;;;1.60;1.50;;;14.00;47.70;;;;;;10494282;28;20224;-81
2022/11/04 05:07:38;;;;;;;1.20;1.20;;;14.00;47.70;;;;;;10494227;28;20228;-81
2022/11/04 05:18:03;;;;;;;1.70;1.60;;;13.90;47.80;;;;;;10494432;28;20223;-81
2022/11/04 05:23:10;;;;;;;1.50;1.40;;;13.90;47.90;;;;;;10486981;28;20644;-81
2022/11/04 05:28:14;;;;;;;1.43;1.30;;;13.90;47.80;;;;;;10494430;28;20324;-81
2022/11/04 05:33:17;;;;;;;1.10;1.10;;;13.80;47.90;;;;;;10491287;28;20302;-81
2022/11/04 05:38:21;;;;;;;2.87;1.17;;;13.80;48.10;;;;;;10498213;28;20220;-81
2022/11/04 05:43:24;;;;;;;1.10;1.10;;;13.80;48.10;;;;;;10490521;28;20240;-81
2022/11/04 05:48:28;;;;;;;1.03;1.03;;;13.70;47.90;;;;;;10496542;28;20228;-81
2022/11/04 05:53:33;;;;;;;1.60;1.50;;;13.70;47.90;;;;;;10502006;28;20228;-81
2022/11/04 05:58:36;;;;;;;1.40;1.30;;;13.70;47.80;;;;;;10505689;28;20228;-81
2022/11/04 06:03:39;;;;;;;1.40;1.30;;;13.70;47.80;;;;;;10500990;28;20606;-81
2022/11/04 06:08:43;;;;;;;1.00;1.00;;;13.60;47.70;;;;;;10499059;28;20317;-81
2022/11/04 06:13:47;;;;;;;0.90;0.90;;;13.60;47.60;;;;;;10498112;28;20270;-82
2022/11/04 06:18:50;;;;;;;1.77;1.17;;;13.60;47.50;;;;;;10499661;28;20235;-81
2022/11/04 06:23:57;;;;;;;1.27;1.00;;;13.60;47.50;;;;;;10499315;28;20228;-81
2022/11/04 06:29:00;;;;;;;1.57;1.30;;;13.60;47.70;;;;;;10491623;28;20591;-81
2022/11/04 06:34:03;;;;;;;3.30;2.20;;;13.50;47.50;;;;;;10495437;28;20277;-82
2022/11/04 06:39:08;;;;;;;2.23;2.07;;;13.50;47.60;;;;;;10496530;28;20232;-81
2022/11/04 06:44:11;;;;;;;1.57;1.47;;;13.40;47.90;;;;;;10491573;28;20738;-82
2022/11/04 06:49:16;;;;;;;3.20;1.97;;;13.40;48.00;;;;;;10503609;28;20715;-82
2022/11/04 06:54:21;;;;;;;2.07;1.97;;;13.40;47.80;;;;;;10493771;28;20232;-82
2022/11/04 06:59:24;;;;;;;2.50;2.13;;;13.40;48.00;;;;;;10493963;28;20236;-82
2022/11/04 07:04:27;;;;;;;1.80;1.70;;;13.40;48.10;;;;;;10492105;28;20230;-81
2022/11/04 07:09:32;;;;;;;3.43;1.77;;;13.40;48.20;;;;;;10492806;28;20224;-82
2022/11/04 07:14:35;;;;;;;2.83;1.80;;;13.40;48.30;;;;;;10499074;28;20227;-82
2022/11/04 07:19:39;;;;;;;2.60;2.40;;;13.30;48.00;;;;;;10493622;28;20236;-82
2022/11/04 07:24:44;;;;;;;2.50;2.30;;;13.30;48.00;;;;;;10502792;28;20228;-81
2022/11/04 07:29:47;;;;;;;2.90;2.70;;;13.30;48.40;;;;;;10495567;28;20593;-82
2022/11/04 07:34:50;;;;;;;2.30;2.10;;;13.30;48.10;;;;;;10494138;28;20225;-81
2022/11/04 07:39:55;;;;;;;1.60;1.50;;;13.30;48.30;;;;;;10489493;28;20240;-81
2022/11/04 07:44:58;;;;;;;1.60;1.50;;;13.30;48.30;;;;;;10488592;28;20224;-81
2022/11/04 07:50:01;;;;;;;1.67;1.33;;;13.20;48.30;;;;;;10488573;28;20225;-81
2022/11/04 07:55:17;;;;;;;1.70;1.60;;;13.10;48.30;;;;;;10490181;28;20645;-82
2022/11/04 08:00:20;;;;;;;2.70;2.20;;;13.10;48.60;;;;;;10486645;28;20239;-78
2022/11/04 08:05:24;;;;;;;2.00;1.90;;;13.10;48.60;;;;;;10476392;28;20224;-82
2022/11/04 08:10:29;;;;;;;2.80;2.50;;;13.10;48.50;;;;;;10482488;28;20235;-81
2022/11/04 08:15:32;;;;;;;2.47;2.23;;;13.10;48.60;;;;;;10485107;28;20323;-79
2022/11/04 08:20:35;;;;;;;1.90;1.50;;;13.10;48.30;;;;;;10491619;28;20277;-83
2022/11/04 08:25:39;;;;;;;2.90;1.50;;;13.00;48.30;;;;;;10483050;28;20286;-81
2022/11/04 08:30:51;;;;;;;8.53;7.50;;;12.90;48.40;;;;;;10480638;28;20232;-81
2022/11/04 08:35:58;;;;;;;12.93;11.73;;;13.00;48.50;;;;;;10458998;28;20243;-79
2022/11/04 08:41:05;;;;;;;4.10;3.80;;;12.90;48.40;;;;;;10489370;28;20236;-81
2022/11/04 08:46:10;;;;;;;2.57;2.20;;;12.90;48.70;;;;;;10481320;28;20228;-83
2022/11/04 08:51:15;;;;;;;1.90;1.80;;;12.90;48.50;;;;;;10476456;28;20247;-81
2022/11/04 08:56:22;;;;;;;1.93;1.53;;;12.90;48.60;;;;;;10483248;28;20236;-77
2022/11/04 09:01:26;;;;;;;1.60;1.50;;;13.00;48.60;;;;;;10443179;22;20225;-69
2022/11/04 09:06:39;;;;;;;1.80;1.70;;;13.00;48.50;;;;;;10416791;28;20300;-69
2022/11/04 09:11:45;;;;;;;3.33;1.63;;;13.00;48.50;;;;;;10417056;28;20244;-69
2022/11/04 09:16:48;;;;;;;3.10;2.77;;;13.10;48.60;;;;;;10421111;28;20229;-69
2022/11/04 09:21:52;;;;;;;2.30;1.40;;;13.10;48.60;;;;;;10418862;28;20240;-68
2022/11/04 09:26:57;;;;;;;2.07;1.50;;;13.20;48.70;;;;;;10414178;28;20233;-68
2022/11/04 09:32:00;;;;;;;1.30;1.20;;;13.30;48.80;;;;;;10416587;28;20278;-68
2022/11/04 09:37:03;;;;;;;5.53;4.90;;;13.40;48.90;;;;;;10415569;28;20222;-69
2022/11/04 09:42:24;;;;;;;5.30;4.47;;;13.50;48.70;;;;;;10422319;28;20229;-69
2022/11/04 09:47:30;;;;;;;12.50;7.77;;;13.60;48.80;;;;;;10411954;28;20250;-68
2022/11/04 09:52:37;;;;;;;3.57;2.80;;;13.60;48.50;;;;;;10409221;28;20233;-68
2022/11/04 09:57:43;;;;;;;6.03;3.87;;;13.70;48.50;;;;;;10418822;28;20220;-68
2022/11/04 10:03:04;;;;;;;2.73;2.50;;;13.70;48.30;;;;;;10412539;28;20225;-68
2022/11/04 10:08:41;;;;;;;2.37;2.10;;;13.70;48.60;;;;;;10412814;28;20236;-68
2022/11/04 10:13:58;;;;;;;2.20;2.10;;;13.70;48.50;;;;;;10407836;28;20303;-68
2022/11/04 10:19:27;;;;;;;3.17;2.10;;;13.70;48.50;;;;;;10415010;28;20221;-68
2022/11/04 10:24:41;;;;;;;3.30;2.60;;;13.70;48.50;;;;;;10417935;28;20221;-68
2022/11/04 10:29:52;;;;;;;3.90;2.87;;;13.70;48.30;;;;;;10417027;28;20258;-68
2022/11/04 10:34:58;;;;;;;3.33;2.40;;;13.70;48.50;;;;;;10421400;28;20710;-68
2022/11/04 10:40:17;;;;;;;2.47;2.13;;;13.70;48.60;;;;;;10426134;28;20221;-68
2022/11/04 10:45:26;;;;;;;3.10;2.80;;;13.70;48.40;;;;;;10425049;28;20243;-68
2022/11/04 10:50:36;;;;;;;3.20;2.90;;;13.80;48.50;;;;;;10414644;28;20257;-68
2022/11/04 10:55:46;;;;;;;3.57;2.57;;;13.80;48.40;;;;;;10423768;28;20631;-68
2022/11/04 11:00:51;;;;;;;3.77;2.37;;;13.80;48.20;;;;;;10421030;28;20558;-68
2022/11/04 11:06:10;;;;;;;3.20;2.60;;;13.80;48.10;;;;;;10426173;28;20239;-68
2022/11/04 11:11:15;;;;;;;2.40;2.20;;;13.80;48.30;;;;;;10417736;28;20240;-68
2022/11/04 11:16:25;;;;;;;3.17;2.83;;;13.80;48.10;;;;;;10420761;28;20607;-68
2022/11/04 11:21:43;;;;;;;3.00;2.70;;;13.90;48.20;;;;;;10417925;28;20237;-68
2022/11/04 11:26:48;;;;;;;1.60;1.50;;;13.90;48.40;;;;;;10418604;28;20229;-68
2022/11/04 11:31:54;;;;;;;1.87;1.77;;;14.00;48.50;;;;;;10422391;28;20242;-68
2022/11/04 11:36:58;;;;;;;2.57;2.00;;;14.00;48.60;;;;;;10421040;28;20232;-68
2022/11/04 11:42:05;;;;;;;2.73;2.23;;;14.10;48.60;;;;;;10421154;28;20237;-68
2022/11/04 11:47:21;;;;;;;4.97;3.17;;;14.10;47.90;;;;;;10417865;28;20229;-68
2022/11/04 11:52:32;;;;;;;2.93;1.83;;;14.20;48.00;;;;;;10425563;28;20236;-68
2022/11/04 11:57:44;;;;;;;1.67;1.57;;;14.20;47.70;;;;;;10413892;28;20237;-73
2022/11/04 12:02:54;;;;;;;1.60;1.50;;;14.10;47.70;;;;;;10420735;28;20241;-68
2022/11/04 12:08:07;;;;;;;2.17;1.77;;;14.20;48.00;;;;;;10415862;28;20222;-68
2022/11/04 12:13:37;;;;;;;2.20;1.73;;;14.20;47.70;;;;;;10416440;28;20682;-68
2022/11/04 12:19:04;;;;;;;3.37;1.60;;;14.30;48.00;;;;;;10419017;28;20230;-73
2022/11/04 12:24:21;;;;;;;3.00;1.60;;;14.30;47.70;;;;;;10416067;28;20754;-68
2022/11/04 12:29:40;;;;;;;2.17;1.70;;;14.30;47.60;;;;;;10414203;28;20232;-68
2022/11/04 12:34:56;;;;;;;1.60;1.50;;;14.30;47.70;;;;;;10415748;28;20237;-68
2022/11/04 12:40:16;;;;;;;3.00;1.80;;;14.40;47.90;;;;;;10420369;28;20228;-68
2022/11/04 12:45:32;;;;;;;3.07;1.90;;;14.40;47.30;;;;;;10413961;28;20236;-69
2022/11/04 12:50:58;;;;;;;1.73;1.63;;;14.30;47.60;;;;;;10416127;28;20237;-68
2022/11/04 12:56:09;;;;;;;1.90;1.80;;;14.40;47.50;;;;;;10423833;28;20301;-66
2022/11/04 13:01:16;;;;;;;1.93;1.70;;;14.40;47.50;;;;;;10413835;28;20225;-67
2022/11/04 13:06:27;;;;;;;2.00;1.80;;;14.40;47.70;;;;;;10420303;28;20723;-66
2022/11/04 13:11:34;;;;;;;1.63;1.37;;;14.50;47.50;;;;;;10421296;28;20237;-66
2022/11/04 13:16:41;;;;;;;2.63;1.60;;;14.50;47.10;;;;;;10420040;28;20703;-66
2022/11/04 13:21:47;;;;;;;2.60;2.40;;;14.50;47.20;;;;;;10414803;28;20290;-68
2022/11/04 13:26:52;;;;;;;2.23;2.00;;;14.50;46.90;;;;;;10418983;28;20233;-74
2022/11/04 13:32:00;;;;;;;3.60;2.23;;;14.50;46.80;;;;;;10414545;28;20327;-73
2022/11/04 13:37:14;;;;;;;2.50;2.30;;;14.40;46.80;;;;;;10419600;28;20625;-73
2022/11/04 13:42:44;;;;;;;2.77;2.00;;;14.30;46.70;;;;;;10418552;28;20228;-67
2022/11/04 13:47:50;;;;;;;2.57;2.30;;;14.30;47.10;;;;;;10421433;28;20228;-68
2022/11/04 13:52:55;;;;;;;2.77;2.57;;;14.20;47.30;;;;;;10416400;28;20607;-68
2022/11/04 13:58:01;;;;;;;3.93;2.67;;;14.20;47.30;;;;;;10419691;28;20246;-68
2022/11/04 14:03:33;;;;;;;2.70;2.10;;;14.20;48.00;;;;;;10419111;28;20229;-69
2022/11/04 14:09:13;;;;;;;2.40;1.97;;;14.30;47.40;;;;;;10415946;28;20237;-68
2022/11/04 14:14:19;;;;;;;4.40;2.47;;;14.30;47.30;;;;;;10427473;28;20793;-68
2022/11/04 14:19:59;;;;;;;3.23;2.80;;;14.20;47.10;;;;;;10426464;28;20707;-68
2022/11/04 14:25:20;;;;;;;3.70;2.40;;;14.20;47.00;;;;;;10423082;28;20234;-68
2022/11/04 14:30:34;;;;;;;4.17;2.73;;;14.10;47.20;;;;;;10424747;28;20236;-68
2022/11/04 14:35:37;;;;;;;4.43;3.33;;;14.10;47.20;;;;;;10425705;28;20240;-74
2022/11/04 14:40:52;;;;;;;4.90;4.00;;;14.10;47.70;;;;;;10426748;28;20257;-74
2022/11/04 14:45:56;;;;;;;3.80;3.43;;;14.00;47.60;;;;;;10423840;28;20240;-73
2022/11/04 14:51:00;;;;;;;3.77;3.47;;;14.10;47.70;;;;;;10422727;28;20268;-73
2022/11/04 14:56:11;;;;;;;4.30;3.83;;;14.10;47.60;;;;;;10424711;28;20228;-73
2022/11/04 15:01:17;;;;;;;5.97;5.47;;;14.00;47.50;;;;;;10420343;28;20225;-73
2022/11/04 15:06:27;;;;;;;7.80;7.10;;;14.00;47.50;;;;;;10417166;28;20806;-73
2022/11/04 15:17:06;;;;;;;3.97;3.53;;;14.00;47.60;;;;;;10411677;28;20322;-73
2022/11/04 15:22:14;;;;;;;6.30;5.40;;;14.10;47.70;;;;;;10421445;28;20236;-73
2022/11/04 15:27:23;;;;;;;6.27;5.67;;;14.10;47.60;;;;;;10421046;28;20233;-68
2022/11/04 15:32:27;;;;;;;28.33;6.13;;;14.00;47.60;;;;;;10420926;28;20958;-68
2022/11/04 15:37:30;;;;;;;4.77;3.90;;;14.10;47.80;;;;;;10424328;28;20260;-66
2022/11/04 15:42:41;;;;;;;3.53;3.23;;;14.20;47.70;;;;;;10423885;28;20299;-68
2022/11/04 15:47:44;;;;;;;3.97;3.47;;;14.20;47.50;;;;;;10421625;28;20267;-68
2022/11/04 15:52:51;;;;;;;4.50;3.87;;;14.20;47.40;;;;;;10420486;28;20226;-68
2022/11/04 15:57:56;;;;;;;7.83;6.17;;;14.20;47.10;;;;;;10420618;28;20647;-68
2022/11/04 16:03:00;;;;;;;9.60;7.47;;;14.20;47.40;;;;;;10420251;28;20236;-68
2022/11/04 16:08:20;;;;;;;9.27;7.57;;;14.10;47.60;;;;;;10422958;28;20236;-68
2022/11/04 16:13:25;;;;;;;6.07;5.30;;;14.10;47.70;;;;;;10420006;28;20256;-69
2022/11/04 16:18:34;;;;;;;6.27;4.83;;;14.20;47.70;;;;;;10423084;28;20271;-70
2022/11/04 16:23:44;;;;;;;3.87;3.57;;;14.20;47.70;;;;;;10420943;28;20240;-67
2022/11/04 16:28:54;;;;;;;4.63;3.03;;;14.20;47.30;;;;;;10420931;28;20237;-69
2022/11/04 16:33:57;;;;;;;4.03;2.97;;;14.20;47.30;;;;;;10418099;28;20646;-74
2022/11/04 16:39:03;;;;;;;2.90;2.60;;;14.20;47.30;;;;;;10418569;28;20286;-66
2022/11/04 16:44:18;;;;;;;3.33;2.63;;;14.20;47.00;;;;;;10420584;28;20325;-67
2022/11/04 16:49:21;;;;;;;2.73;2.53;;;14.20;46.90;;;;;;10418060;28;20968;-67
2022/11/04 16:54:26;;;;;;;3.00;2.70;;;14.20;46.90;;;;;;10422239;28;20643;-67
2022/11/04 16:59:30;;;;;;;3.60;3.00;;;14.20;46.90;;;;;;10416779;28;20233;-67
2022/11/04 17:04:33;;;;;;;4.10;3.60;;;14.20;46.90;;;;;;10418367;28;20229;-67
2022/11/04 17:09:36;;;;;;;3.37;3.07;;;14.10;46.80;;;;;;10419169;28;20230;-67
2022/11/04 17:14:41;;;;;;;6.00;4.90;;;14.10;46.80;;;;;;10418615;28;20236;-67
2022/11/04 17:19:44;;;;;;;5.57;5.07;;;14.10;46.70;;;;;;10419145;28;20221;-67
2022/11/04 17:24:47;;;;;;;4.90;4.50;;;14.00;46.60;;;;;;10421252;28;20772;-67
2022/11/04 17:29:52;;;;;;;5.10;4.40;;;14.00;46.50;;;;;;10415517;28;20233;-67
2022/11/04 17:34:55;;;;;;;5.57;4.93;;;13.90;46.30;;;;;;10413719;28;20237;-67
2022/11/04 17:39:58;;;;;;;5.67;5.17;;;13.90;46.20;;;;;;10414965;28;20220;-67
2022/11/04 17:45:04;;;;;;;5.43;5.03;;;13.90;46.30;;;;;;10421751;28;20236;-70
2022/11/04 17:50:08;;;;;;;5.40;4.83;;;13.80;46.20;;;;;;10427501;28;20237;-68
2022/11/04 17:55:11;;;;;;;4.97;4.47;;;13.70;46.20;;;;;;10427786;28;20237;-67
2022/11/04 18:00:23;;;;;;;7.03;6.20;;;13.70;46.20;;;;;;10425715;28;20229;-67
2022/11/04 18:05:26;;;;;;;6.47;5.83;;;13.70;45.90;;;;;;10423049;28;20279;-67
2022/11/04 18:10:29;;;;;;;10.13;6.63;;;13.60;45.80;;;;;;10421901;28;20232;-67
2022/11/04 18:15:33;;;;;;;7.40;6.80;;;13.50;45.60;;;;;;10424870;28;20649;-67
2022/11/04 18:20:37;;;;;;;6.47;5.97;;;13.40;45.40;;;;;;10434210;28;20240;-66
2022/11/04 18:25:40;;;;;;;7.60;5.97;;;13.30;45.80;;;;;;10426549;28;20286;-66
2022/11/04 18:30:47;;;;;;;9.93;9.03;;;13.20;45.90;;;;;;10426453;28;20292;-66
2022/11/04 18:35:51;;;;;;;9.77;8.77;;;13.20;45.90;;;;;;10429019;28;20737;-66
2022/11/04 18:40:54;;;;;;;7.20;6.60;;;13.10;45.60;;;;;;10425016;28;20236;-66
2022/11/04 18:45:58;;;;;;;7.67;6.97;;;13.00;45.90;;;;;;10430304;28;20241;-66
2022/11/04 18:51:02;;;;;;;6.00;5.50;;;12.90;46.10;;;;;;10427801;28;20217;-66
2022/11/04 18:56:07;;;;;;;6.70;6.20;;;13.00;46.30;;;;;;10427635;28;20237;-67
2022/11/04 19:01:15;;;;;;;7.27;6.67;;;12.90;46.20;;;;;;10427344;28;20237;-66
2022/11/04 19:06:23;;;;;;;5.90;5.40;;;12.90;46.00;;;;;;10430052;28;20241;-67
2022/11/04 19:11:28;;;;;;;6.40;5.87;;;12.90;45.90;;;;;;10422388;28;20237;-66
2022/11/04 19:16:33;;;;;;;5.77;5.27;;;12.70;45.90;;;;;;10424089;28;20241;-66
2022/11/04 19:21:36;;;;;;;6.10;5.47;;;12.70;46.10;;;;;;10426940;28;20229;-66
2022/11/04 19:26:40;;;;;;;9.00;7.67;;;12.60;46.30;;;;;;10420796;28;20243;-66
2022/11/04 19:31:45;;;;;;;7.27;6.03;;;12.60;46.50;;;;;;10421503;28;20290;-67
2022/11/04 19:36:48;;;;;;;6.13;5.63;;;12.50;46.50;;;;;;10410153;28;20233;-67
2022/11/04 19:47:13;;;;;;;7.87;7.17;;;12.60;46.60;;;;;;10418565;28;20228;-69
2022/11/04 19:52:17;;;;;;;7.97;6.77;;;12.60;46.50;;;;;;10414021;28;20648;-66
2022/11/04 19:57:20;;;;;;;7.47;6.47;;;12.60;46.50;;;;;;10410685;28;20229;-66
2022/11/04 20:02:25;;;;;;;18.33;16.00;;;12.60;46.40;;;;;;10407091;28;20247;-66
2022/11/04 20:07:28;;;;;;;14.17;12.87;;;12.60;46.20;;;;;;10414812;28;20259;-67
2022/11/04 20:17:53;;;;;;;11.40;10.30;;;12.60;46.10;;;;;;10410719;28;20594;-73
2022/11/04 20:22:56;;;;;;;9.80;8.90;;;12.60;46.20;;;;;;10412693;28;20239;-73
2022/11/04 20:28:01;;;;;;;11.50;10.37;;;12.50;46.10;;;;;;10412418;28;20221;-73
2022/11/04 20:33:06;;;;;;;9.07;8.27;;;12.50;46.10;;;;;;10416420;28;20278;-73
2022/11/04 20:38:09;;;;;;;7.67;6.97;;;12.50;46.10;;;;;;10414223;28;20233;-72
2022/11/04 20:43:12;;;;;;;10.13;8.17;;;12.50;46.10;;;;;;10416371;28;20241;-67
2022/11/04 20:48:17;;;;;;;9.37;8.43;;;12.50;45.70;;;;;;10409281;28;20641;-72
2022/11/04 20:53:20;;;;;;;7.33;6.63;;;12.40;45.50;;;;;;10409538;28;20236;-72
2022/11/04 20:58:23;;;;;;;13.07;8.60;;;12.30;45.80;;;;;;10408084;28;20562;-72
2022/11/04 21:03:28;;;;;;;7.33;6.60;;;12.30;46.10;;;;;;10409652;28;20241;-72
2022/11/04 21:08:34;;;;;;;9.73;8.83;;;12.30;45.90;;;;;;10414676;28;20236;-72
2022/11/04 21:13:37;;;;;;;9.80;8.80;;;12.20;45.70;;;;;;10405985;28;20237;-68
2022/11/04 21:18:41;;;;;;;8.93;8.03;;;12.10;45.60;;;;;;10409480;28;20225;-68
2022/11/04 21:23:45;;;;;;;10.63;9.67;;;12.00;45.90;;;;;;10408743;28;20241;-68
2022/11/04 21:28:52;;;;;;;7.83;7.13;;;12.00;46.20;;;;;;10412207;28;20230;-66
2022/11/04 21:33:57;;;;;;;6.93;6.33;;;12.00;46.40;;;;;;10420990;28;20284;-66
2022/11/04 21:39:00;;;;;;;9.43;6.63;;;12.00;46.30;;;;;;10416902;28;20225;-66
2022/11/04 21:44:07;;;;;;;7.00;6.40;;;12.00;46.00;;;;;;10411408;28;20236;-67
2022/11/04 21:49:13;;;;;;;6.43;5.93;;;12.00;45.90;;;;;;10416410;28;20633;-67
2022/11/04 21:54:16;;;;;;;6.93;6.10;;;12.00;45.90;;;;;;10415985;28;20237;-67
2022/11/04 21:59:19;;;;;;;6.00;5.50;;;12.00;45.70;;;;;;10419475;28;20225;-66
2022/11/04 22:04:24;;;;;;;6.20;5.60;;;11.90;45.70;;;;;;10418900;28;20236;-66
2022/11/04 22:09:27;;;;;;;5.77;5.23;;;11.90;45.70;;;;;;10420653;28;20615;-67
2022/11/04 22:14:30;;;;;;;6.10;5.50;;;11.90;45.80;;;;;;10421752;28;20244;-67
2022/11/04 22:19:35;;;;;;;6.33;5.73;;;11.90;45.90;;;;;;10425934;28;20306;-66
2022/11/04 22:24:38;;;;;;;5.73;5.23;;;11.90;45.60;;;;;;10419235;28;20237;-66
2022/11/04 22:29:41;;;;;;;5.80;5.20;;;11.80;45.50;;;;;;10413023;28;20290;-68
2022/11/04 22:34:46;;;;;;;6.77;5.77;;;11.70;45.50;;;;;;10422958;28;20237;-66
2022/11/04 22:39:49;;;;;;;6.50;5.07;;;11.70;45.50;;;;;;10421459;28;20221;-66
2022/11/04 22:44:52;;;;;;;5.10;4.60;;;11.60;45.60;;;;;;10422759;28;20898;-67
2022/11/04 22:49:56;;;;;;;5.97;5.37;;;11.60;45.40;;;;;;10426721;28;20229;-72
2022/11/04 22:54:59;;;;;;;7.50;6.00;;;11.40;45.10;;;;;;10420697;28;20235;-72
2022/11/04 23:00:04;;;;;;;5.63;5.13;;;11.30;45.40;;;;;;10418041;28;20639;-72
2022/11/04 23:05:09;;;;;;;6.27;5.67;;;11.30;45.40;;;;;;10420469;28;20233;-72
2022/11/04 23:26:12;;;;;;;6.30;5.43;;;11.00;45.60;;;;;;10408758;28;20276;-67
2022/11/04 23:31:15;;;;;;;5.60;5.10;;;11.00;45.80;;;;;;10407550;28;20233;-67
